• Join FlightAware (Why Join?)
  • Login
  • US Flag 
04:44AM EDT


 

Airport Tracker/Info


-or-


 

Live Flight TrackerFlight Track Log ✈ KEN1501 ✈ 12-May-2013 ✈ KBFI - KCLM

Flight Track Log - Related Links

Times and Time Zones

All times are in EDT time to prevent confusion due to time zone crossing. See the KEN1501 flight status page for this flight to view local times or setup timezone preferences in your user account.

Time Position Orientation Groundspeed Altitude Reporting Facility
EDT Latitude Longitude Course Direction KTS MPH feet Rate Location/Type
04:24PM 47.5161 -122.3050 315° West 113 130 600  Level Seattle Center
04:25PM 47.5483 -122.3531 315° West 167 192 900 420 Climbing Seattle Center
04:26PM 47.5847 -122.3919 324° Northwest 164 189 1,500 540 Climbing Seattle Center
04:27PM 47.6214 -122.4311 324° Northwest 165 190 2,000 720 Climbing Seattle Center
04:28PM 47.6597 -122.4689 326° Northwest 154 177 3,000 900 Climbing Seattle Center
04:29PM 47.6667 -122.4792 315° West 154 177 3,200 840 Climbing Seattle Center
04:29PM 47.6942 -122.5092 324° Northwest 154 177 3,900 780 Climbing Seattle Center
04:30PM 47.7017 -122.5172 324° Northwest 156 180 4,000  Climbing Seattle Center
04:30PM 47.7333 -122.5503 325° Northwest 185 213 3,900 -120 Descending Seattle Center
04:31PM 47.7450 -122.5608 329° Northwest 174 200 3,900 60 Level Seattle Center
04:31PM 47.7686 -122.5936 317° Northwest 164 189 4,000 60 Climbing Seattle Center
04:32PM 47.7806 -122.6044 329° Northwest 168 193 4,000 -300 Level Seattle Center
04:32PM 47.7997 -122.6253 324° Northwest 172 198 3,800 -120 Descending Seattle Center
04:33PM 47.8139 -122.6397 326° Northwest 175 201 3,900  Climbing Seattle Center
04:33PM 47.8414 -122.6742 320° Northwest 174 200 3,800  Descending Seattle Center
04:34PM 47.8614 -122.6881 335° Northwest 174 200 3,900 60 Climbing Seattle Center
04:34PM 47.8864 -122.7017 340° North 183 211 3,900 60 Level Seattle Center
04:35PM 47.9092 -122.7103 346° North 181 208 4,000  Climbing Seattle Center
04:35PM 47.9367 -122.7328 331° Northwest 184 212 3,900  Descending Seattle Center
04:36PM 47.9522 -122.7483 326° Northwest 181 208 4,000  Climbing Seattle Center
04:36PM 47.9756 -122.7803 317° Northwest 181 208 3,900  Descending Seattle Center
04:37PM 47.9908 -122.7953 327° Northwest 180 207 4,000  Climbing Seattle Center
04:37PM 48.0139 -122.8247 319° Northwest 180 207 3,900  Descending Seattle Center
04:38PM 48.0297 -122.8411 325° Northwest 181 208 4,000  Climbing Seattle Center
04:38PM 48.0417 -122.8819 294° West 178 205 3,900 -120 Descending Seattle Center
04:39PM 48.0442 -122.9078 278° West 176 203 3,900 -240 Level Seattle Center
04:39PM 48.0492 -122.9542 279° West 174 200 3,700 -240 Descending Seattle Center
04:40PM 48.0544 -122.9781 288° West 177 204 3,700 -120 Level Seattle Center
04:40PM 48.0617 -123.0303 282° West 175 201 3,600 -120 Descending Seattle Center
04:41PM 48.0667 -123.0464 295° West 173 199 3,600  Level Seattle Center
04:41PM 48.0733 -123.0933 282° West 163 188 3,600  Level Seattle Center
04:42PM 48.0767 -123.1094 287° West 161 185 3,600 -240 Level Seattle Center
04:42PM 48.0828 -123.1578 281° West 157 181 3,400 -540 Descending Seattle Center
04:43PM 48.0819 -123.1875 268° West 159 183 3,100 -540 Descending Seattle Center
04:43PM 48.0800 -123.2258 266° West 173 199 2,900 -240 Descending Seattle Center
04:44PM 48.0822 -123.2556 276° West 168 193 2,900  Level Seattle Center
04:44PM 48.0817 -123.2944 269° West 150 173 2,900 -240 Level Seattle Center
04:45PM 48.0847 -123.3128 284° West 153 176 2,700 -600 Descending Seattle Center
04:45PM 48.0914 -123.3422 289° West 112 129 2,300 -720 Descending Seattle Center
04:46PM 48.0944 -123.3586 286° West 129 148 2,000 -720 Descending Seattle Center
04:47PM 48.1006 -123.3967 284° West 124 143 1,500 -840 Descending Seattle Center
04:47PM 48.1028 -123.4114 283° West 127 146 1,200 -600 Descending Seattle Center
04:48PM 48.1111 -123.4608 284° West 126 145 700 -420 Descending Seattle Center
04:49PM 48.1228 -123.5194 287° West 125 144 400 -300 Descending Seattle Center